METAR AND TAF INFORMATION
METAR FOR EHAM
ADDS - METARS form results

(1921 UTC 26 April 2018)
Data provider http://aviationweather.gov/adds/metars/
 
METAR text: EHAM 261855Z 23016KT CAVOK 10/05 Q1015 NOSIG
Conditions at: EHAM (AMSTERDAM/SCHIPH, NL) observed 1855 UTC 26 April 2018
Temperature: 10.0°C (50°F)
Dewpoint: 5.0°C (41°F) [RH = 71%]
Pressure (altimeter): 29.97 inches Hg (1015.0 mb)
Winds: from the SW (230 degrees) at 18 MPH (16 knots; 8.3 m/s)
Visibility: 6 or more miles (10+ km)
Ceiling: ceiling and visibility are OK
Clouds: unknown
Weather: no significant weather observed at this time

METAR text: EHAM 261825Z 23017KT 200V260 CAVOK 11/05 Q1015 NOSIG
Conditions at: EHAM (AMSTERDAM/SCHIPH, NL) observed 1825 UTC 26 April 2018
Temperature: 11.0°C (52°F)
Dewpoint: 5.0°C (41°F) [RH = 66%]
Pressure (altimeter): 29.97 inches Hg (1015.0 mb)
Winds: from the SW (230 degrees) at 20 MPH (17 knots; 8.8 m/s)
Visibility: 6 or more miles (10+ km)
Ceiling: ceiling and visibility are OK
Clouds: unknown
Weather: no significant weather observed at this time

Forecast for: EHAM (AMSTERDAM/SCHIPH, NL)
Text: TAF EHAM 261653Z 2618/2724 23015KT 9999 FEW030
Forecast period: 1800 to 2100 UTC 26 April 2018
Forecast type: FROM: standard forecast or significant change
Winds: from the SW (230 degrees) at 17 MPH (15 knots; 7.8 m/s)
Visibility: 6 or more miles (10+ km)
Clouds: few clouds at 3000 feet AGL
Weather: no significant weather forecast for this period
Forecast for: EHAM (AMSTERDAM/SCHIPH, NL)
Text: TAF EHAM 261653Z 2618/2724 23015KT 9999 FEW030
Forecast period: 1800 to 2100 UTC 26 April 2018
Forecast type: FROM: standard forecast or significant change
Winds: from the SW (230 degrees) at 17 MPH (15 knots; 7.8 m/s)
Visibility: 6 or more miles (10+ km)
Clouds: few clouds at 3000 feet AGL
Weather: no significant weather forecast for this period
Forecast for: EHAM (AMSTERDAM/SCHIPH, NL)
Text: TAF EHAM 261653Z 2618/2724 23015KT 9999 FEW030
Forecast period: 2100 UTC 26 April 2018 to 1400 UTC 27 April 2018
Forecast type: BECOMING: Conditions expected to become as follows by 0000 UTC 27 April 2018
Winds: from the SSW (210 degrees) at 8 MPH (7 knots; 3.6 m/s)
Visibility: 6 or more miles (10+ km)
Clouds: few clouds at 3000 feet AGL
Weather: no significant weather forecast for this period
Forecast for: EHAM (AMSTERDAM/SCHIPH, NL)
Text: TAF EHAM 261653Z 2618/2724 23015KT 9999 FEW030
Forecast period: 2100 UTC 26 April 2018 to 1400 UTC 27 April 2018
Forecast type: BECOMING: Conditions expected to become as follows by 0000 UTC 27 April 2018
Winds: from the SSW (210 degrees) at 8 MPH (7 knots; 3.6 m/s)
Visibility: 6 or more miles (10+ km)
Clouds: few clouds at 3000 feet AGL
Weather: no significant weather forecast for this period
Forecast for: EHAM (AMSTERDAM/SCHIPH, NL)
Text: TAF EHAM 261653Z 2618/2724 23015KT 9999 FEW030
Forecast period: 1200 to 1500 UTC 27 April 2018
Forecast type: TEMPORARY: The following changes expected for less than half the time period
Visibility: 4 miles (7 km)
Ceiling: 4000 feet AGL
Clouds: broken clouds at 4000 feet AGL
Weather: -RA  (light rain)
Forecast for: EHAM (AMSTERDAM/SCHIPH, NL)
Text: TAF EHAM 261653Z 2618/2724 23015KT 9999 FEW030
Forecast period: 1200 to 1500 UTC 27 April 2018
Forecast type: TEMPORARY: The following changes expected for less than half the time period
Visibility: 4 miles (7 km)
Ceiling: 4000 feet AGL
Clouds: broken clouds at 4000 feet AGL
Weather: -RA  (light rain)
Forecast for: EHAM (AMSTERDAM/SCHIPH, NL)
Text: TAF EHAM 261653Z 2618/2724 23015KT 9999 FEW030
Forecast period: 1400 UTC 27 April 2018 to 0000 UTC 28 April 2018
Forecast type: BECOMING: Conditions expected to become as follows by 1700 UTC 27 April 2018
Winds: from the E (80 degrees) at 8 MPH (7 knots; 3.6 m/s)
Visibility: 6 or more miles (10+ km)
Clouds: few clouds at 3000 feet AGL
Weather: no significant weather forecast for this period
Forecast for: EHAM (AMSTERDAM/SCHIPH, NL)
Text: TAF EHAM 261653Z 2618/2724 23015KT 9999 FEW030
Forecast period: 1400 UTC 27 April 2018 to 0000 UTC 28 April 2018
Forecast type: BECOMING: Conditions expected to become as follows by 1700 UTC 27 April 2018
Winds: from the E (80 degrees) at 8 MPH (7 knots; 3.6 m/s)
Visibility: 6 or more miles (10+ km)
Clouds: few clouds at 3000 feet AGL
Weather: no significant weather forecast for this period

 AIRPORT MAP

 RUNWAY INFORMATION
Runway 04 Runway length 6608 ft Runway width 148 ft
Runway elevation 0 ft Runway displaced threshold 0 ft Runway heading 41
Runway 22 Runway length 6608 ft Runway width 148 ft
Runway elevation 0 ft Runway displaced threshold 0 ft Runway heading 221
Runway 06 Runway length 11483 ft Runway width 148 ft
Runway elevation 0 ft Runway displaced threshold 820 ft Runway heading 58
Runway 24 Runway length 11483 ft Runway width 148 ft
Runway elevation 0 ft Runway displaced threshold 0 ft Runway heading 238
Runway 09 Runway length 11329 ft Runway width 148 ft
Runway elevation 0 ft Runway displaced threshold 294 ft Runway heading 87
Runway 27 Runway length 11329 ft Runway width 148 ft
Runway elevation 0 ft Runway displaced threshold 0 ft Runway heading 267
Runway 18C Runway length 10826 ft Runway width 148 ft
Runway elevation 0 ft Runway displaced threshold 0 ft Runway heading 183
Runway 36C Runway length 10826 ft Runway width 148 ft
Runway elevation 0 ft Runway displaced threshold 1476 ft Runway heading 3
Runway 18L Runway length 11155 ft Runway width 148 ft
Runway elevation 0 ft Runway displaced threshold 1887 ft Runway heading 183
Runway 36R Runway length 11155 ft Runway width 148 ft
Runway elevation 0 ft Runway displaced threshold 0 ft Runway heading 3
Runway 18R Runway length 12467 ft Runway width 198 ft
Runway elevation 0 ft Runway displaced threshold 886 ft Runway heading 183
Runway 36L Runway length 12467 ft Runway width 198 ft
Runway elevation 0 ft Runway displaced threshold 0 ft Runway heading 3

 AIRPORT FREQUENCIES
Type APP Name APP/DEP Frequency 119.05 MHZ
Type ARR Name ARR Frequency 118.4 MHZ
Type ATIS Name ATIS Frequency 108.4 MHZ
Type CLD Name CLNC DEL Frequency 121.975 MHZ
Type GND Name GND Frequency 121.7 MHZ
Type TWR Name TWR Frequency 119.225 MHZ

 AIRPORT NEAR NAVIGATION AIDS
Type VOR-DME Name Schiphol Frequency 108400 KHZ
Type VOR-DME Name Spijkerboor Frequency 113300 KHZ



v2.6.1